sensor_id;sensor_type;location;lat;lon;timestamp;pressure;altitude;pressure_sealevel;temperature;humidity
32083;BME280;18597;48.328;7.932;2023-04-22T00:02:12;98823.53;;;8.65;100.00
32083;BME280;18597;48.328;7.932;2023-04-22T00:04:39;98819.75;;;8.68;100.00
32083;BME280;18597;48.328;7.932;2023-04-22T00:07:06;98814.31;;;8.69;100.00
32083;BME280;18597;48.328;7.932;2023-04-22T00:09:32;98818.34;;;8.64;100.00
32083;BME280;18597;48.328;7.932;2023-04-22T00:11:58;98823.44;;;8.86;100.00
32083;BME280;18597;48.328;7.932;2023-04-22T00:14:24;98817.09;;;8.97;100.00
32083;BME280;18597;48.328;7.932;2023-04-22T00:16:50;98818.66;;;8.80;100.00
32083;BME280;18597;48.328;7.932;2023-04-22T00:19:16;98814.16;;;8.90;100.00
32083;BME280;18597;48.328;7.932;2023-04-22T00:21:41;98812.19;;;8.73;100.00
32083;BME280;18597;48.328;7.932;2023-04-22T00:24:07;98812.63;;;8.78;100.00
32083;BME280;18597;48.328;7.932;2023-04-22T00:26:33;98814.44;;;8.68;100.00
32083;BME280;18597;48.328;7.932;2023-04-22T00:28:59;98809.66;;;8.52;100.00
32083;BME280;18597;48.328;7.932;2023-04-22T00:31:25;98813.00;;;8.44;100.00
32083;BME280;18597;48.328;7.932;2023-04-22T00:33:50;98807.97;;;8.41;100.00
32083;BME280;18597;48.328;7.932;2023-04-22T00:36:16;98807.72;;;8.64;100.00
32083;BME280;18597;48.328;7.932;2023-04-22T00:38:48;98801.81;;;8.60;100.00
32083;BME280;18597;48.328;7.932;2023-04-22T00:41:14;98810.34;;;8.44;100.00
32083;BME280;18597;48.328;7.932;2023-04-22T00:43:40;98811.53;;;8.21;100.00
32083;BME280;18597;48.328;7.932;2023-04-22T00:46:06;98812.19;;;8.13;100.00
32083;BME280;18597;48.328;7.932;2023-04-22T00:48:34;98818.28;;;8.34;100.00
32083;BME280;18597;48.328;7.932;2023-04-22T00:51:00;98834.59;;;8.11;100.00
32083;BME280;18597;48.328;7.932;2023-04-22T00:53:26;98832.94;;;7.79;100.00
32083;BME280;18597;48.328;7.932;2023-04-22T00:55:51;98829.66;;;7.96;100.00
32083;BME280;18597;48.328;7.932;2023-04-22T00:58:18;98824.84;;;7.90;100.00
32083;BME280;18597;48.328;7.932;2023-04-22T01:00:45;98825.44;;;7.63;100.00
32083;BME280;18597;48.328;7.932;2023-04-22T01:03:12;98827.00;;;7.45;100.00
32083;BME280;18597;48.328;7.932;2023-04-22T01:05:39;98836.75;;;7.35;100.00
32083;BME280;18597;48.328;7.932;2023-04-22T01:08:05;98840.63;;;7.31;100.00
32083;BME280;18597;48.328;7.932;2023-04-22T01:10:31;98836.44;;;7.28;100.00
32083;BME280;18597;48.328;7.932;2023-04-22T01:12:57;98835.81;;;7.45;100.00
32083;BME280;18597;48.328;7.932;2023-04-22T01:15:23;98835.25;;;7.42;100.00
32083;BME280;18597;48.328;7.932;2023-04-22T01:17:49;98831.63;;;7.22;100.00
32083;BME280;18597;48.328;7.932;2023-04-22T01:20:17;98840.84;;;7.18;100.00
32083;BME280;18597;48.328;7.932;2023-04-22T01:22:44;98840.59;;;7.10;100.00
32083;BME280;18597;48.328;7.932;2023-04-22T01:25:11;98835.06;;;7.13;100.00
32083;BME280;18597;48.328;7.932;2023-04-22T01:27:38;98832.41;;;7.13;100.00
32083;BME280;18597;48.328;7.932;2023-04-22T01:30:07;98835.63;;;6.95;100.00
32083;BME280;18597;48.328;7.932;2023-04-22T01:32:33;98831.38;;;7.04;100.00
32083;BME280;18597;48.328;7.932;2023-04-22T01:35:00;98838.53;;;6.92;100.00
32083;BME280;18597;48.328;7.932;2023-04-22T01:37:28;98852.38;;;6.75;100.00
32083;BME280;18597;48.328;7.932;2023-04-22T01:39:56;98836.03;;;6.80;100.00
32083;BME280;18597;48.328;7.932;2023-04-22T01:42:22;98836.34;;;6.98;100.00
32083;BME280;18597;48.328;7.932;2023-04-22T01:44:48;98838.31;;;6.84;100.00
32083;BME280;18597;48.328;7.932;2023-04-22T01:47:14;98829.94;;;6.68;100.00
32083;BME280;18597;48.328;7.932;2023-04-22T01:49:39;98837.19;;;6.66;100.00
32083;BME280;18597;48.328;7.932;2023-04-22T01:52:05;98833.94;;;6.62;100.00
32083;BME280;18597;48.328;7.932;2023-04-22T01:54:32;98838.13;;;6.76;100.00
32083;BME280;18597;48.328;7.932;2023-04-22T01:56:58;98839.28;;;6.83;100.00
32083;BME280;18597;48.328;7.932;2023-04-22T01:59:24;98839.28;;;6.83;100.00
32083;BME280;18597;48.328;7.932;2023-04-22T02:01:50;98846.25;;;6.95;100.00
32083;BME280;18597;48.328;7.932;2023-04-22T02:04:16;98844.44;;;6.96;100.00
32083;BME280;18597;48.328;7.932;2023-04-22T02:06:41;98841.38;;;7.01;100.00
32083;BME280;18597;48.328;7.932;2023-04-22T02:09:07;98839.19;;;7.06;100.00
32083;BME280;18597;48.328;7.932;2023-04-22T02:11:33;98850.88;;;7.14;100.00
32083;BME280;18597;48.328;7.932;2023-04-22T02:13:59;98851.00;;;7.13;100.00
32083;BME280;18597;48.328;7.932;2023-04-22T02:16:24;98849.97;;;7.04;100.00
32083;BME280;18597;48.328;7.932;2023-04-22T02:18:50;98849.56;;;7.09;100.00
32083;BME280;18597;48.328;7.932;2023-04-22T02:21:16;98849.50;;;7.20;100.00
32083;BME280;18597;48.328;7.932;2023-04-22T02:23:42;98860.13;;;7.20;100.00
32083;BME280;18597;48.328;7.932;2023-04-22T02:26:08;98865.19;;;7.23;100.00
32083;BME280;18597;48.328;7.932;2023-04-22T02:28:34;98869.47;;;7.14;100.00
32083;BME280;18597;48.328;7.932;2023-04-22T02:31:00;98872.41;;;7.00;100.00
32083;BME280;18597;48.328;7.932;2023-04-22T02:33:26;98878.84;;;6.98;100.00
32083;BME280;18597;48.328;7.932;2023-04-22T02:35:52;98881.97;;;6.91;100.00
32083;BME280;18597;48.328;7.932;2023-04-22T02:38:18;98883.81;;;6.91;100.00
32083;BME280;18597;48.328;7.932;2023-04-22T02:40:44;98881.34;;;6.99;100.00
32083;BME280;18597;48.328;7.932;2023-04-22T02:43:10;98877.56;;;7.13;100.00
32083;BME280;18597;48.328;7.932;2023-04-22T02:45:36;98887.03;;;6.94;100.00
32083;BME280;18597;48.328;7.932;2023-04-22T02:48:02;98879.59;;;6.88;100.00
32083;BME280;18597;48.328;7.932;2023-04-22T02:50:27;98878.19;;;7.05;100.00
32083;BME280;18597;48.328;7.932;2023-04-22T02:52:53;98882.06;;;7.01;100.00
32083;BME280;18597;48.328;7.932;2023-04-22T02:55:19;98885.34;;;6.93;100.00
32083;BME280;18597;48.328;7.932;2023-04-22T02:57:46;98885.53;;;7.13;100.00
32083;BME280;18597;48.328;7.932;2023-04-22T03:00:12;98886.22;;;7.15;100.00
32083;BME280;18597;48.328;7.932;2023-04-22T03:02:38;98880.97;;;7.04;100.00
32083;BME280;18597;48.328;7.932;2023-04-22T03:05:05;98900.53;;;7.03;100.00
32083;BME280;18597;48.328;7.932;2023-04-22T03:07:31;98896.28;;;7.11;100.00
32083;BME280;18597;48.328;7.932;2023-04-22T03:09:56;98890.16;;;7.00;100.00
32083;BME280;18597;48.328;7.932;2023-04-22T03:12:23;98897.00;;;6.81;100.00
32083;BME280;18597;48.328;7.932;2023-04-22T03:14:49;98892.59;;;6.59;100.00
32083;BME280;18597;48.328;7.932;2023-04-22T03:17:15;98890.72;;;6.82;100.00
32083;BME280;18597;48.328;7.932;2023-04-22T03:19:41;98892.03;;;6.88;100.00
32083;BME280;18597;48.328;7.932;2023-04-22T03:22:06;98892.66;;;6.80;100.00
32083;BME280;18597;48.328;7.932;2023-04-22T03:24:32;98893.28;;;6.73;100.00
32083;BME280;18597;48.328;7.932;2023-04-22T03:26:58;98885.63;;;6.79;100.00
32083;BME280;18597;48.328;7.932;2023-04-22T03:29:24;98893.66;;;6.57;100.00
32083;BME280;18597;48.328;7.932;2023-04-22T03:31:50;98889.72;;;6.40;100.00
32083;BME280;18597;48.328;7.932;2023-04-22T03:34:15;98888.97;;;6.49;100.00
32083;BME280;18597;48.328;7.932;2023-04-22T03:36:41;98885.34;;;6.61;100.00
32083;BME280;18597;48.328;7.932;2023-04-22T03:39:07;98881.63;;;6.42;100.00
32083;BME280;18597;48.328;7.932;2023-04-22T03:41:33;98884.88;;;6.34;100.00
32083;BME280;18597;48.328;7.932;2023-04-22T03:43:59;98873.66;;;6.53;100.00
32083;BME280;18597;48.328;7.932;2023-04-22T03:46:25;98883.03;;;6.57;100.00
32083;BME280;18597;48.328;7.932;2023-04-22T03:48:51;98888.91;;;6.28;100.00
32083;BME280;18597;48.328;7.932;2023-04-22T03:51:16;98884.56;;;6.16;100.00
32083;BME280;18597;48.328;7.932;2023-04-22T03:53:42;98896.63;;;6.09;100.00
32083;BME280;18597;48.328;7.932;2023-04-22T03:56:08;98886.25;;;6.28;100.00
32083;BME280;18597;48.328;7.932;2023-04-22T03:58:34;98884.31;;;6.30;100.00
32083;BME280;18597;48.328;7.932;2023-04-22T04:01:00;98884.06;;;6.22;100.00
32083;BME280;18597;48.328;7.932;2023-04-22T04:03:25;98891.16;;;6.33;100.00
32083;BME280;18597;48.328;7.932;2023-04-22T04:05:52;98879.97;;;6.07;100.00
32083;BME280;18597;48.328;7.932;2023-04-22T04:08:18;98884.78;;;6.24;100.00
32083;BME280;18597;48.328;7.932;2023-04-22T04:10:44;98880.69;;;6.09;100.00
32083;BME280;18597;48.328;7.932;2023-04-22T04:13:10;98871.41;;;6.03;100.00
32083;BME280;18597;48.328;7.932;2023-04-22T04:15:36;98874.91;;;6.15;100.00
32083;BME280;18597;48.328;7.932;2023-04-22T04:18:02;98865.28;;;6.14;100.00
32083;BME280;18597;48.328;7.932;2023-04-22T04:20:29;98877.69;;;5.91;100.00
32083;BME280;18597;48.328;7.932;2023-04-22T04:22:55;98875.75;;;5.93;100.00
32083;BME280;18597;48.328;7.932;2023-04-22T04:25:22;98871.44;;;5.92;100.00
32083;BME280;18597;48.328;7.932;2023-04-22T04:27:48;98873.13;;;5.93;100.00
32083;BME280;18597;48.328;7.932;2023-04-22T04:30:16;98869.38;;;5.96;100.00
32083;BME280;18597;48.328;7.932;2023-04-22T04:32:42;98872.22;;;5.81;100.00
32083;BME280;18597;48.328;7.932;2023-04-22T04:35:10;98871.88;;;5.75;100.00
32083;BME280;18597;48.328;7.932;2023-04-22T04:37:41;98868.34;;;5.63;100.00
32083;BME280;18597;48.328;7.932;2023-04-22T04:40:07;98856.44;;;5.80;100.00
32083;BME280;18597;48.328;7.932;2023-04-22T04:42:34;98859.47;;;5.75;100.00
32083;BME280;18597;48.328;7.932;2023-04-22T04:45:02;98855.47;;;5.70;100.00
32083;BME280;18597;48.328;7.932;2023-04-22T04:47:28;98860.44;;;5.74;100.00
32083;BME280;18597;48.328;7.932;2023-04-22T04:49:54;98861.53;;;5.94;100.00
32083;BME280;18597;48.328;7.932;2023-04-22T04:52:23;98863.19;;;5.84;100.00
32083;BME280;18597;48.328;7.932;2023-04-22T04:54:48;98857.78;;;5.97;100.00
32083;BME280;18597;48.328;7.932;2023-04-22T04:57:14;98863.56;;;6.24;100.00
32083;BME280;18597;48.328;7.932;2023-04-22T04:59:40;98863.34;;;6.27;100.00
32083;BME280;18597;48.328;7.932;2023-04-22T05:02:06;98865.41;;;6.13;100.00
32083;BME280;18597;48.328;7.932;2023-04-22T05:04:32;98861.28;;;6.31;100.00
32083;BME280;18597;48.328;7.932;2023-04-22T05:06:58;98863.56;;;6.35;100.00
32083;BME280;18597;48.328;7.932;2023-04-22T05:09:24;98864.72;;;6.54;100.00
32083;BME280;18597;48.328;7.932;2023-04-22T05:11:49;98859.34;;;6.76;100.00
32083;BME280;18597;48.328;7.932;2023-04-22T05:14:15;98848.03;;;6.95;100.00
32083;BME280;18597;48.328;7.932;2023-04-22T05:16:41;98850.94;;;7.03;100.00
32083;BME280;18597;48.328;7.932;2023-04-22T05:19:07;98857.06;;;7.24;100.00
32083;BME280;18597;48.328;7.932;2023-04-22T05:21:33;98862.16;;;7.48;100.00
32083;BME280;18597;48.328;7.932;2023-04-22T05:23:59;98864.66;;;7.71;100.00
32083;BME280;18597;48.328;7.932;2023-04-22T05:26:25;98867.19;;;8.03;100.00
32083;BME280;18597;48.328;7.932;2023-04-22T05:28:51;98883.13;;;8.33;100.00
32083;BME280;18597;48.328;7.932;2023-04-22T05:31:17;98885.47;;;8.57;100.00
32083;BME280;18597;48.328;7.932;2023-04-22T05:33:43;98887.44;;;8.75;100.00
32083;BME280;18597;48.328;7.932;2023-04-22T05:36:09;98891.41;;;8.90;100.00
32083;BME280;18597;48.328;7.932;2023-04-22T05:38:35;98895.47;;;9.04;100.00
32083;BME280;18597;48.328;7.932;2023-04-22T05:41:01;98883.66;;;8.68;100.00
32083;BME280;18597;48.328;7.932;2023-04-22T05:43:26;98885.38;;;8.88;100.00
32083;BME280;18597;48.328;7.932;2023-04-22T05:45:52;98890.03;;;9.15;100.00
32083;BME280;18597;48.328;7.932;2023-04-22T05:48:18;98891.84;;;9.14;100.00
32083;BME280;18597;48.328;7.932;2023-04-22T05:50:44;98886.66;;;9.23;100.00
32083;BME280;18597;48.328;7.932;2023-04-22T05:53:10;98902.34;;;9.55;100.00
32083;BME280;18597;48.328;7.932;2023-04-22T05:55:35;98903.88;;;10.23;100.00
32083;BME280;18597;48.328;7.932;2023-04-22T05:58:01;98891.25;;;12.38;100.00
32083;BME280;18597;48.328;7.932;2023-04-22T06:00:27;98900.03;;;15.30;77.78
32083;BME280;18597;48.328;7.932;2023-04-22T06:02:53;98894.28;;;17.76;59.74
32083;BME280;18597;48.328;7.932;2023-04-22T06:05:18;98890.19;;;20.05;48.86
32083;BME280;18597;48.328;7.932;2023-04-22T06:07:44;98892.88;;;22.22;42.63
32083;BME280;18597;48.328;7.932;2023-04-22T06:10:10;98888.63;;;24.13;38.67
32083;BME280;18597;48.328;7.932;2023-04-22T06:12:36;98889.44;;;25.24;34.97
32083;BME280;18597;48.328;7.932;2023-04-22T06:15:03;98886.72;;;26.03;33.21
32083;BME280;18597;48.328;7.932;2023-04-22T06:17:29;98880.66;;;25.39;34.08
32083;BME280;18597;48.328;7.932;2023-04-22T06:19:55;98880.34;;;24.95;33.18
32083;BME280;18597;48.328;7.932;2023-04-22T06:22:20;98880.97;;;26.05;32.94
32083;BME280;18597;48.328;7.932;2023-04-22T06:24:46;98864.06;;;27.61;30.83
32083;BME280;18597;48.328;7.932;2023-04-22T06:27:12;98869.19;;;29.16;29.03
32083;BME280;18597;48.328;7.932;2023-04-22T06:29:38;98866.16;;;30.76;27.20
32083;BME280;18597;48.328;7.932;2023-04-22T06:32:04;98859.50;;;32.44;24.93
32083;BME280;18597;48.328;7.932;2023-04-22T06:34:30;98860.53;;;33.57;23.15
32083;BME280;18597;48.328;7.932;2023-04-22T06:36:56;98862.47;;;34.68;22.43
32083;BME280;18597;48.328;7.932;2023-04-22T06:39:22;98856.03;;;35.37;20.91
32083;BME280;18597;48.328;7.932;2023-04-22T06:41:47;98848.72;;;34.63;21.81
32083;BME280;18597;48.328;7.932;2023-04-22T06:44:14;98838.38;;;32.77;22.53
32083;BME280;18597;48.328;7.932;2023-04-22T06:46:40;98844.16;;;30.55;24.69
32083;BME280;18597;48.328;7.932;2023-04-22T06:49:06;98844.53;;;29.62;26.18
32083;BME280;18597;48.328;7.932;2023-04-22T06:51:32;98856.59;;;26.80;29.50
32083;BME280;18597;48.328;7.932;2023-04-22T06:53:58;98858.66;;;25.62;32.04
32083;BME280;18597;48.328;7.932;2023-04-22T06:56:24;98855.44;;;26.16;30.75
32083;BME280;18597;48.328;7.932;2023-04-22T06:58:50;98850.22;;;29.15;28.29
32083;BME280;18597;48.328;7.932;2023-04-22T07:01:16;98854.44;;;29.99;25.73
32083;BME280;18597;48.328;7.932;2023-04-22T07:03:42;98845.28;;;30.49;26.24
32083;BME280;18597;48.328;7.932;2023-04-22T07:06:08;98838.84;;;31.39;24.75
32083;BME280;18597;48.328;7.932;2023-04-22T07:08:34;98845.34;;;32.50;24.19
32083;BME280;18597;48.328;7.932;2023-04-22T07:11:00;98847.84;;;34.35;22.65
32083;BME280;18597;48.328;7.932;2023-04-22T07:13:26;98838.50;;;34.17;21.55
32083;BME280;18597;48.328;7.932;2023-04-22T07:15:52;98843.75;;;34.33;21.37
32083;BME280;18597;48.328;7.932;2023-04-22T07:18:18;98844.09;;;35.00;20.53
32083;BME280;18597;48.328;7.932;2023-04-22T07:20:43;98839.22;;;35.19;20.80
32083;BME280;18597;48.328;7.932;2023-04-22T07:23:09;98844.59;;;35.02;20.66
32083;BME280;18597;48.328;7.932;2023-04-22T07:25:35;98839.28;;;34.78;20.82
32083;BME280;18597;48.328;7.932;2023-04-22T07:28:01;98838.63;;;35.09;20.56
32083;BME280;18597;48.328;7.932;2023-04-22T07:30:27;98829.06;;;36.27;20.37
32083;BME280;18597;48.328;7.932;2023-04-22T07:32:52;98830.22;;;37.92;18.92
32083;BME280;18597;48.328;7.932;2023-04-22T07:35:18;98830.25;;;39.36;18.12
32083;BME280;18597;48.328;7.932;2023-04-22T07:37:44;98825.19;;;40.49;16.96
32083;BME280;18597;48.328;7.932;2023-04-22T07:40:10;98812.81;;;41.52;15.95
32083;BME280;18597;48.328;7.932;2023-04-22T07:42:39;98805.63;;;41.67;15.79
32083;BME280;18597;48.328;7.932;2023-04-22T07:45:05;98802.16;;;42.29;15.42
32083;BME280;18597;48.328;7.932;2023-04-22T07:47:32;98796.91;;;43.30;14.57
32083;BME280;18597;48.328;7.932;2023-04-22T07:49:57;98801.97;;;44.21;13.87
32083;BME280;18597;48.328;7.932;2023-04-22T07:52:23;98793.41;;;45.13;13.52
32083;BME280;18597;48.328;7.932;2023-04-22T07:54:49;98792.59;;;45.76;12.93
32083;BME280;18597;48.328;7.932;2023-04-22T07:57:15;98799.59;;;46.26;12.54
32083;BME280;18597;48.328;7.932;2023-04-22T07:59:41;98790.75;;;46.31;12.11
32083;BME280;18597;48.328;7.932;2023-04-22T08:02:07;98792.56;;;46.09;12.64
32083;BME280;18597;48.328;7.932;2023-04-22T08:04:32;98789.41;;;45.47;12.08
32083;BME280;18597;48.328;7.932;2023-04-22T08:06:58;98782.16;;;45.16;12.37
32083;BME280;18597;48.328;7.932;2023-04-22T08:09:24;98778.25;;;44.94;12.77
32083;BME280;18597;48.328;7.932;2023-04-22T08:11:51;98776.75;;;44.77;12.79
32083;BME280;18597;48.328;7.932;2023-04-22T08:14:17;98777.34;;;44.64;12.43
32083;BME280;18597;48.328;7.932;2023-04-22T08:16:43;98775.13;;;44.27;12.88
32083;BME280;18597;48.328;7.932;2023-04-22T08:19:09;98775.97;;;43.66;13.26
32083;BME280;18597;48.328;7.932;2023-04-22T08:21:35;98776.41;;;43.29;13.27
32083;BME280;18597;48.328;7.932;2023-04-22T08:24:02;98770.00;;;42.58;13.73
32083;BME280;18597;48.328;7.932;2023-04-22T08:26:27;98763.09;;;42.08;14.22
32083;BME280;18597;48.328;7.932;2023-04-22T08:28:53;98767.91;;;42.24;14.26
32083;BME280;18597;48.328;7.932;2023-04-22T08:31:19;98754.06;;;42.31;13.99
32083;BME280;18597;48.328;7.932;2023-04-22T08:33:45;98756.94;;;42.50;13.57
32083;BME280;18597;48.328;7.932;2023-04-22T08:36:12;98751.41;;;42.70;13.62
32083;BME280;18597;48.328;7.932;2023-04-22T08:38:37;98764.16;;;42.83;13.77
32083;BME280;18597;48.328;7.932;2023-04-22T08:41:05;98747.78;;;42.53;14.40
32083;BME280;18597;48.328;7.932;2023-04-22T08:43:32;98745.63;;;41.99;14.87
32083;BME280;18597;48.328;7.932;2023-04-22T08:45:58;98743.47;;;41.09;15.09
32083;BME280;18597;48.328;7.932;2023-04-22T08:48:25;98735.84;;;40.08;15.68
32083;BME280;18597;48.328;7.932;2023-04-22T08:50:51;98738.81;;;37.51;17.63
32083;BME280;18597;48.328;7.932;2023-04-22T08:53:19;98746.28;;;34.67;19.87
32083;BME280;18597;48.328;7.932;2023-04-22T08:55:46;98734.81;;;32.21;22.93
32083;BME280;18597;48.328;7.932;2023-04-22T08:58:13;98750.00;;;30.28;24.61
32083;BME280;18597;48.328;7.932;2023-04-22T09:00:42;98734.69;;;29.15;25.57
32083;BME280;18597;48.328;7.932;2023-04-22T09:03:09;98734.41;;;28.23;27.68
32083;BME280;18597;48.328;7.932;2023-04-22T09:05:39;98726.75;;;27.08;28.74
32083;BME280;18597;48.328;7.932;2023-04-22T09:08:05;98721.72;;;26.29;29.87
32083;BME280;18597;48.328;7.932;2023-04-22T09:10:35;98729.44;;;25.89;31.16
32083;BME280;18597;48.328;7.932;2023-04-22T09:13:04;98723.56;;;25.63;32.52
32083;BME280;18597;48.328;7.932;2023-04-22T09:15:31;98730.53;;;25.37;33.72
32083;BME280;18597;48.328;7.932;2023-04-22T09:17:57;98729.78;;;25.08;34.79
32083;BME280;18597;48.328;7.932;2023-04-22T09:20:28;98730.66;;;24.97;34.16
32083;BME280;18597;48.328;7.932;2023-04-22T09:22:56;98714.03;;;24.70;34.59
32083;BME280;18597;48.328;7.932;2023-04-22T09:25:27;98714.88;;;24.42;34.22
32083;BME280;18597;48.328;7.932;2023-04-22T09:27:55;98712.97;;;24.31;33.53
32083;BME280;18597;48.328;7.932;2023-04-22T09:30:28;98719.03;;;24.33;32.55
32083;BME280;18597;48.328;7.932;2023-04-22T09:32:58;98723.59;;;24.56;32.50
32083;BME280;18597;48.328;7.932;2023-04-22T09:35:28;98719.41;;;24.65;28.15
32083;BME280;18597;48.328;7.932;2023-04-22T09:37:55;98732.19;;;24.76;28.03
32083;BME280;18597;48.328;7.932;2023-04-22T09:40:22;98735.56;;;24.67;28.67
32083;BME280;18597;48.328;7.932;2023-04-22T09:42:50;98745.34;;;25.08;28.24
32083;BME280;18597;48.328;7.932;2023-04-22T09:45:34;98758.03;;;25.14;28.08
32083;BME280;18597;48.328;7.932;2023-04-22T09:48:14;98744.28;;;25.26;27.31
32083;BME280;18597;48.328;7.932;2023-04-22T09:50:46;98741.81;;;25.41;27.25
32083;BME280;18597;48.328;7.932;2023-04-22T09:53:15;98760.03;;;25.86;27.03
32083;BME280;18597;48.328;7.932;2023-04-22T09:55:46;98746.81;;;26.21;26.12
32083;BME280;18597;48.328;7.932;2023-04-22T09:58:16;98737.59;;;26.27;26.67
32083;BME280;18597;48.328;7.932;2023-04-22T10:00:46;98748.78;;;26.04;26.41
32083;BME280;18597;48.328;7.932;2023-04-22T10:03:14;98741.28;;;26.16;25.99
32083;BME280;18597;48.328;7.932;2023-04-22T10:05:40;98754.41;;;25.92;26.80
32083;BME280;18597;48.328;7.932;2023-04-22T10:08:09;98753.09;;;25.78;26.85
32083;BME280;18597;48.328;7.932;2023-04-22T10:10:36;98752.66;;;25.69;27.63
32083;BME280;18597;48.328;7.932;2023-04-22T10:13:04;98757.88;;;25.88;26.65
32083;BME280;18597;48.328;7.932;2023-04-22T10:15:33;98761.38;;;26.05;27.13
32083;BME280;18597;48.328;7.932;2023-04-22T10:18:02;98760.94;;;26.13;27.74
32083;BME280;18597;48.328;7.932;2023-04-22T10:20:31;98755.47;;;26.13;27.05
32083;BME280;18597;48.328;7.932;2023-04-22T10:23:04;98757.00;;;26.04;27.28
32083;BME280;18597;48.328;7.932;2023-04-22T10:25:30;98751.41;;;25.94;27.20
32083;BME280;18597;48.328;7.932;2023-04-22T10:28:07;98758.06;;;25.48;27.39
32083;BME280;18597;48.328;7.932;2023-04-22T10:30:38;98745.38;;;25.41;27.29
32083;BME280;18597;48.328;7.932;2023-04-22T10:41:32;98730.53;;;25.37;27.95
32083;BME280;18597;48.328;7.932;2023-04-22T10:44:03;98731.84;;;25.52;27.90
32083;BME280;18597;48.328;7.932;2023-04-22T10:49:09;98752.66;;;25.86;27.29
32083;BME280;18597;48.328;7.932;2023-04-22T10:51:41;98750.91;;;26.19;26.81
32083;BME280;18597;48.328;7.932;2023-04-22T10:59:51;98746.47;;;27.70;25.07
32083;BME280;18597;48.328;7.932;2023-04-22T11:02:19;98735.31;;;27.81;25.49
32083;BME280;18597;48.328;7.932;2023-04-22T11:04:46;98725.38;;;27.80;25.19
32083;BME280;18597;48.328;7.932;2023-04-22T11:15:17;98734.41;;;27.71;24.97
32083;BME280;18597;48.328;7.932;2023-04-22T11:17:49;98733.38;;;27.82;24.43
32083;BME280;18597;48.328;7.932;2023-04-22T11:20:16;98734.88;;;28.10;24.86
32083;BME280;18597;48.328;7.932;2023-04-22T11:22:45;98745.41;;;28.23;24.23
32083;BME280;18597;48.328;7.932;2023-04-22T11:25:12;98743.25;;;28.30;24.62
32083;BME280;18597;48.328;7.932;2023-04-22T11:27:39;98741.91;;;27.85;24.66
32083;BME280;18597;48.328;7.932;2023-04-22T11:30:16;98739.16;;;27.85;24.50
32083;BME280;18597;48.328;7.932;2023-04-22T11:32:45;98731.56;;;27.65;24.86
32083;BME280;18597;48.328;7.932;2023-04-22T11:35:17;98733.03;;;27.36;25.65
32083;BME280;18597;48.328;7.932;2023-04-22T11:37:47;98741.22;;;27.31;26.05
32083;BME280;18597;48.328;7.932;2023-04-22T11:40:17;98739.44;;;27.20;26.33
32083;BME280;18597;48.328;7.932;2023-04-22T11:42:43;98733.09;;;26.87;25.96
32083;BME280;18597;48.328;7.932;2023-04-22T11:45:10;98736.59;;;26.34;26.95
32083;BME280;18597;48.328;7.932;2023-04-22T11:47:39;98737.56;;;25.84;28.05
32083;BME280;18597;48.328;7.932;2023-04-22T11:50:08;98748.59;;;25.38;28.55
32083;BME280;18597;48.328;7.932;2023-04-22T11:52:51;98735.34;;;25.13;29.70
32083;BME280;18597;48.328;7.932;2023-04-22T11:55:29;98730.84;;;25.07;28.97
32083;BME280;18597;48.328;7.932;2023-04-22T11:58:14;98737.56;;;25.50;28.71
32083;BME280;18597;48.328;7.932;2023-04-22T12:00:47;98737.38;;;25.90;27.92
32083;BME280;18597;48.328;7.932;2023-04-22T12:03:24;98732.19;;;26.33;26.78
32083;BME280;18597;48.328;7.932;2023-04-22T12:05:54;98731.84;;;26.73;26.39
32083;BME280;18597;48.328;7.932;2023-04-22T12:08:38;98736.94;;;27.13;25.56
32083;BME280;18597;48.328;7.932;2023-04-22T12:11:08;98732.16;;;26.49;26.73
32083;BME280;18597;48.328;7.932;2023-04-22T12:13:41;98735.69;;;26.72;27.13
32083;BME280;18597;48.328;7.932;2023-04-22T12:16:11;98731.41;;;27.08;26.33
32083;BME280;18597;48.328;7.932;2023-04-22T12:18:49;98732.91;;;27.21;25.92
32083;BME280;18597;48.328;7.932;2023-04-22T12:21:20;98732.91;;;27.58;26.59
32083;BME280;18597;48.328;7.932;2023-04-22T12:23:53;98728.63;;;27.72;25.85
32083;BME280;18597;48.328;7.932;2023-04-22T12:26:21;98735.53;;;27.80;25.77
32083;BME280;18597;48.328;7.932;2023-04-22T12:28:48;98745.81;;;28.00;26.35
32083;BME280;18597;48.328;7.932;2023-04-22T12:31:14;98742.88;;;28.11;26.06
32083;BME280;18597;48.328;7.932;2023-04-22T12:33:41;98730.50;;;28.04;25.35
32083;BME280;18597;48.328;7.932;2023-04-22T12:36:07;98729.03;;;27.96;25.29
32083;BME280;18597;48.328;7.932;2023-04-22T12:38:33;98737.34;;;28.06;25.37
32083;BME280;18597;48.328;7.932;2023-04-22T12:41:00;98732.97;;;28.10;25.68
32083;BME280;18597;48.328;7.932;2023-04-22T12:43:26;98735.72;;;28.10;26.47
32083;BME280;18597;48.328;7.932;2023-04-22T12:45:52;98739.59;;;28.14;26.78
32083;BME280;18597;48.328;7.932;2023-04-22T12:48:18;98734.03;;;27.99;26.07
32083;BME280;18597;48.328;7.932;2023-04-22T12:50:45;98728.78;;;27.92;26.43
32083;BME280;18597;48.328;7.932;2023-04-22T12:53:11;98741.34;;;27.83;26.56
32083;BME280;18597;48.328;7.932;2023-04-22T12:55:37;98733.22;;;27.61;26.72
32083;BME280;18597;48.328;7.932;2023-04-22T12:58:03;98733.31;;;27.40;26.88
32083;BME280;18597;48.328;7.932;2023-04-22T13:00:29;98726.56;;;26.66;27.51
32083;BME280;18597;48.328;7.932;2023-04-22T13:02:55;98718.25;;;25.57;29.30
32083;BME280;18597;48.328;7.932;2023-04-22T13:05:21;98727.94;;;25.64;29.74
32083;BME280;18597;48.328;7.932;2023-04-22T13:07:47;98730.13;;;25.79;30.13
32083;BME280;18597;48.328;7.932;2023-04-22T13:10:15;98722.88;;;24.60;31.35
32083;BME280;18597;48.328;7.932;2023-04-22T13:12:42;98716.97;;;24.12;32.69
32083;BME280;18597;48.328;7.932;2023-04-22T13:15:10;98717.75;;;24.35;32.36
32083;BME280;18597;48.328;7.932;2023-04-22T13:17:37;98714.47;;;25.07;31.00
32083;BME280;18597;48.328;7.932;2023-04-22T13:20:05;98712.63;;;25.63;30.57
32083;BME280;18597;48.328;7.932;2023-04-22T13:22:34;98710.41;;;25.77;29.43
32083;BME280;18597;48.328;7.932;2023-04-22T13:25:01;98716.78;;;25.49;30.93